This is the latest recevied weather packets stored in our database for station/object M0TJX-1. If no packets are shown the sender has not sent any weather packets the latest 10 day(s).
| Time | Temp. | Humidity | Pressure | Rain* | Wind** | Luminosity | Snow |
|---|---|---|---|---|---|---|---|
| 1787491529 | 23.33° C | 44% | 1024.8 hPa | 0 mm | - | - | - |
| 1787490629 | 24.44° C | 42% | 1024.9 hPa | 0 mm | - | - | - |
| 1787489729 | 24.44° C | 44% | 1025 hPa | 0 mm | - | - | - |
| 1787488829 | 23.89° C | 45% | 1025 hPa | 0 mm | - | - | - |
| 1787487929 | 22.78° C | 47% | 1025.2 hPa | 0 mm | - | - | - |
| 1787487029 | 23.89° C | 44% | 1025.4 hPa | 0 mm | - | - | - |
| 1787486129 | 25° C | 43% | 1025.3 hPa | 0 mm | - | - | - |
| 1787485229 | 25° C | 46% | 1025.2 hPa | 0 mm | - | - | - |
| 1787484329 | 23.89° C | 49% | 1025 hPa | 0 mm | - | - | - |
| 1787483429 | 23.89° C | 49% | 1025.3 hPa | 0 mm | - | - | - |
| 1787482529 | 23.33° C | 51% | 1025.5 hPa | 0 mm | - | - | - |
| 1787481629 | 22.78° C | 51% | 1025.4 hPa | 0 mm | - | - | - |
| 1787480729 | 22.22° C | 54% | 1025.4 hPa | 0 mm | - | - | - |
| 1787479829 | 21.67° C | 54% | 1025.5 hPa | 0 mm | - | - | - |
| 1787478929 | 21.11° C | 55% | 1025.6 hPa | 0 mm | - | - | - |
| 1787478029 | 20.56° C | 59% | 1025.7 hPa | 0 mm | - | - | - |
| 1787477129 | 19.44° C | 62% | 1025.6 hPa | 0 mm | - | - | - |
| 1787476229 | 18.89° C | 64% | 1025.7 hPa | 0 mm | - | - | - |
| 1787475329 | 17.78° C | 69% | 1025.9 hPa | 0 mm | - | - | - |
| 1787474429 | 16.11° C | 73% | 1026 hPa | 0 mm | - | - | - |
| 1787473529 | 14.44° C | 78% | 1026 hPa | 0 mm | - | - | - |
| 1787472629 | 13.33° C | 81% | 1025.9 hPa | 0 mm | - | - | - |
| 1787470829 | 12.22° C | 85% | 1026.1 hPa | 0 mm | - | - | - |
| 1787469929 | 11.67° C | 86% | 1026.2 hPa | 0 mm | - | - | - |
| 1787469029 | 11.11° C | 88% | 1026.2 hPa | 0 mm | - | - | - |
* Rain latest hour (hover to see other rain measurements)
** Current wind speed in m/s (hover to see current wind gust speed)